Time;durP1;ratioP1;P1;durP2;ratioP2;P2;SDS_P1;SDS_P2;PMS_P1;PMS_P2;Temp;Humidity;BMP_temperature;BMP_pressure;BME280_temperature;BME280_humidity;BME280_pressure;Samples;Min_cycle;Max_cycle;Signal;HPM_P1;HPM_P2
2022/06/12 00:00:48;;;;;;;0.80;0.80;;;21.30;99.90;;;;;;5146093;27;20876;-64
2022/06/12 00:03:22;;;;;;;0.77;0.77;;;21.50;99.90;;;;;;5146498;27;20926;-63
2022/06/12 00:05:56;;;;;;;0.80;0.80;;;21.40;99.90;;;;;;5145888;27;20455;-62
2022/06/12 00:08:31;;;;;;;0.53;0.53;;;21.30;99.90;;;;;;5137364;27;20432;-64
2022/06/12 00:11:03;;;;;;;0.50;0.50;;;21.20;99.90;;;;;;5147097;27;20443;-63
2022/06/12 00:13:36;;;;;;;0.53;0.53;;;20.90;99.90;;;;;;5146574;27;20812;-62
2022/06/12 00:16:09;;;;;;;0.83;0.70;;;20.60;99.90;;;;;;5145400;27;20488;-65
2022/06/12 00:18:41;;;;;;;0.50;0.50;;;20.60;99.90;;;;;;5145802;27;20474;-62
2022/06/12 00:21:13;;;;;;;0.80;0.70;;;20.40;99.90;;;;;;5143978;27;20479;-62
2022/06/12 00:23:49;;;;;;;0.70;0.70;;;20.30;99.90;;;;;;5152528;27;20445;-62
2022/06/12 00:26:22;;;;;;;0.80;0.60;;;20.20;99.90;;;;;;5144717;27;20555;-62
2022/06/12 00:28:58;;;;;;;0.70;0.70;;;20.20;99.90;;;;;;5144386;27;20447;-64
2022/06/12 00:31:29;;;;;;;0.80;0.70;;;20.20;99.90;;;;;;5149213;27;20452;-63
2022/06/12 00:34:02;;;;;;;0.93;0.93;;;20.30;99.90;;;;;;5144945;27;20477;-63
2022/06/12 00:36:33;;;;;;;0.60;0.60;;;20.20;99.90;;;;;;5145333;27;20488;-63
2022/06/12 00:39:08;;;;;;;1.23;1.13;;;20.30;99.90;;;;;;5144102;27;20486;-64
2022/06/12 00:41:40;;;;;;;0.97;0.90;;;20.30;99.90;;;;;;5136156;27;20524;-65
2022/06/12 00:44:13;;;;;;;1.67;1.57;;;20.30;99.90;;;;;;5143079;27;20530;-65
2022/06/12 00:46:49;;;;;;;0.80;0.80;;;20.30;99.90;;;;;;5143548;27;20455;-65
2022/06/12 00:49:25;;;;;;;0.70;0.70;;;20.30;99.90;;;;;;5144803;27;20445;-66
2022/06/12 00:52:00;;;;;;;0.70;0.70;;;20.20;99.90;;;;;;5134801;27;20472;-64
2022/06/12 00:54:33;;;;;;;1.00;1.00;;;20.30;99.90;;;;;;5143612;27;20430;-66
2022/06/12 00:57:06;;;;;;;0.80;0.80;;;20.40;99.90;;;;;;5144853;27;20490;-65
2022/06/12 00:59:41;;;;;;;0.90;0.90;;;20.50;99.90;;;;;;5141477;27;20449;-64
2022/06/12 01:02:14;;;;;;;0.93;0.93;;;20.60;99.90;;;;;;5144547;27;20567;-64
2022/06/12 01:07:37;;;;;;;1.00;0.90;;;20.50;99.90;;;;;;5142340;27;20445;-66
2022/06/12 01:10:14;;;;;;;0.70;0.70;;;20.40;99.90;;;;;;5144362;27;20449;-65
2022/06/12 01:12:48;;;;;;;0.87;0.87;;;20.30;99.90;;;;;;5130800;27;20579;-66
2022/06/12 01:15:24;;;;;;;0.70;0.70;;;20.20;99.90;;;;;;5143249;27;20737;-65
2022/06/12 01:17:57;;;;;;;0.80;0.80;;;20.20;99.90;;;;;;5141087;27;20452;-64
2022/06/12 01:20:33;;;;;;;0.90;0.90;;;20.30;99.90;;;;;;5142764;27;20475;-65
2022/06/12 01:23:28;;;;;;;0.80;0.80;;;20.30;99.90;;;;;;5144854;27;20449;-64
2022/06/12 01:26:39;;;;;;;1.37;1.10;;;20.30;99.90;;;;;;5143789;27;20459;-63
2022/06/12 01:29:19;;;;;;;0.80;0.80;;;20.30;99.90;;;;;;5140324;27;20502;-64
2022/06/12 01:31:56;;;;;;;1.10;1.10;;;20.20;99.90;;;;;;5143011;27;20885;-64
2022/06/12 01:34:41;;;;;;;1.27;1.20;;;20.20;99.90;;;;;;5143613;27;20460;-65
2022/06/12 01:37:22;;;;;;;1.00;0.93;;;20.30;99.90;;;;;;5136634;27;20586;-64
2022/06/12 01:40:20;;;;;;;0.90;0.90;;;20.20;99.90;;;;;;5142061;27;20904;-64
2022/06/12 01:42:56;;;;;;;1.10;1.00;;;20.20;99.90;;;;;;5142879;27;20834;-63
2022/06/12 01:45:40;;;;;;;0.93;0.93;;;20.10;99.90;;;;;;5139654;27;20457;-65
2022/06/12 01:48:25;;;;;;;1.10;1.10;;;20.10;99.90;;;;;;5139287;27;20466;-63
2022/06/12 01:51:16;;;;;;;1.00;1.00;;;20.20;99.90;;;;;;5132781;27;20553;-63
2022/06/12 01:54:03;;;;;;;0.90;0.90;;;20.30;99.90;;;;;;5140691;27;20460;-63
2022/06/12 01:56:41;;;;;;;0.97;0.97;;;20.30;99.90;;;;;;5144391;27;20597;-63
2022/06/12 01:59:18;;;;;;;0.90;0.90;;;20.30;99.90;;;;;;5136212;27;20494;-64
2022/06/12 02:01:57;;;;;;;0.80;0.80;;;20.30;99.90;;;;;;5142343;27;20437;-63
2022/06/12 02:04:33;;;;;;;0.90;0.90;;;20.20;99.90;;;;;;5152820;27;20543;-59
2022/06/12 02:07:09;;;;;;;1.00;1.00;;;20.10;99.90;;;;;;5141670;27;20456;-62
2022/06/12 02:09:43;;;;;;;1.43;1.17;;;19.90;99.90;;;;;;5124080;27;20453;-62
2022/06/12 02:15:13;;;;;;;1.23;1.17;;;19.50;99.90;;;;;;5134801;27;20820;-62
2022/06/12 02:17:51;;;;;;;1.40;1.30;;;19.40;99.90;;;;;;5130068;27;20489;-62
2022/06/12 02:20:26;;;;;;;1.20;1.10;;;19.30;99.90;;;;;;5137158;27;20456;-62
2022/06/12 02:23:13;;;;;;;0.90;0.90;;;19.10;99.90;;;;;;5142291;27;20489;-66
2022/06/12 02:25:54;;;;;;;1.40;1.30;;;18.90;99.90;;;;;;5136781;27;20535;-66
2022/06/12 02:28:30;;;;;;;1.30;1.10;;;18.80;99.90;;;;;;5143736;27;20868;-67
2022/06/12 02:31:16;;;;;;;1.43;1.20;;;18.70;99.90;;;;;;5141886;27;20448;-66
2022/06/12 02:33:53;;;;;;;2.10;1.20;;;18.70;99.90;;;;;;5132336;27;20551;-67
2022/06/12 02:36:27;;;;;;;1.00;1.00;;;18.60;99.90;;;;;;5142380;27;20920;-67
2022/06/12 02:39:02;;;;;;;1.47;1.37;;;18.50;99.90;;;;;;5140307;27;20435;-68
2022/06/12 02:41:37;;;;;;;1.90;1.80;;;18.50;99.90;;;;;;5139658;27;20461;-66
2022/06/12 02:44:13;;;;;;;1.63;1.53;;;18.40;99.90;;;;;;5141387;27;20468;-67
2022/06/12 02:46:48;;;;;;;1.90;1.60;;;18.50;99.90;;;;;;5141153;27;20456;-67
2022/06/12 02:49:21;;;;;;;1.50;1.40;;;18.30;99.90;;;;;;5140432;27;20543;-67
2022/06/12 02:51:59;;;;;;;1.40;1.30;;;18.30;99.90;;;;;;5129581;27;20432;-68
2022/06/12 02:54:35;;;;;;;2.40;1.60;;;18.20;99.90;;;;;;5139240;27;20574;-67
2022/06/12 02:57:12;;;;;;;1.60;1.50;;;18.10;99.90;;;;;;5133230;27;20485;-68
2022/06/12 02:59:52;;;;;;;2.30;1.70;;;18.00;99.90;;;;;;5137271;28;20427;-68
2022/06/12 03:02:33;;;;;;;1.73;1.63;;;18.00;99.90;;;;;;5135717;27;20798;-67
2022/06/12 03:05:14;;;;;;;1.53;1.43;;;18.10;99.90;;;;;;5135041;27;20524;-67
2022/06/12 03:07:45;;;;;;;1.37;1.27;;;18.10;99.90;;;;;;5142159;28;20856;-67
2022/06/12 03:10:19;;;;;;;1.50;1.40;;;18.00;99.90;;;;;;5129582;28;20440;-67
2022/06/12 03:12:51;;;;;;;1.37;1.27;;;17.90;99.90;;;;;;5142309;27;20449;-67
2022/06/12 03:15:47;;;;;;;1.10;1.10;;;17.80;99.90;;;;;;5143301;27;20526;-66
2022/06/12 03:18:28;;;;;;;1.47;1.37;;;17.70;99.90;;;;;;5138966;27;20488;-65
2022/06/12 03:21:21;;;;;;;1.13;1.03;;;17.60;99.90;;;;;;5140997;27;20468;-65
2022/06/12 03:24:10;;;;;;;1.40;1.30;;;17.70;99.90;;;;;;5140799;27;20893;-66
2022/06/12 03:27:13;;;;;;;1.87;1.70;;;17.80;99.90;;;;;;5137492;27;20834;-66
2022/06/12 03:29:52;;;;;;;1.87;1.73;;;17.80;99.90;;;;;;5136020;27;20475;-66
2022/06/12 03:32:31;;;;;;;1.30;1.20;;;17.70;99.90;;;;;;5128264;27;20544;-67
2022/06/12 03:35:10;;;;;;;1.40;1.30;;;17.50;99.90;;;;;;5140527;27;20518;-65
2022/06/12 03:37:49;;;;;;;1.33;1.23;;;17.40;99.90;;;;;;5142458;28;20498;-64
2022/06/12 03:40:34;;;;;;;1.30;1.20;;;17.30;99.90;;;;;;5131215;27;20665;-65
2022/06/12 03:43:12;;;;;;;1.37;1.27;;;17.20;99.90;;;;;;5142194;27;20457;-65
2022/06/12 03:45:49;;;;;;;1.40;1.30;;;17.20;99.90;;;;;;5140491;27;20453;-65
2022/06/12 03:48:26;;;;;;;1.60;1.50;;;17.20;99.90;;;;;;5138810;27;20499;-65
2022/06/12 03:51:05;;;;;;;1.67;1.57;;;17.20;99.90;;;;;;5139721;27;20473;-65
2022/06/12 03:53:48;;;;;;;1.83;1.73;;;17.20;99.90;;;;;;5133108;27;20431;-64
2022/06/12 03:59:19;;;;;;;1.93;1.33;;;17.20;99.90;;;;;;5147505;27;20417;-65
2022/06/12 04:01:52;;;;;;;1.53;1.43;;;17.30;99.90;;;;;;5144313;27;20455;-64
2022/06/12 04:04:26;;;;;;;1.97;1.80;;;17.30;99.90;;;;;;5146629;27;20463;-65
2022/06/12 04:06:57;;;;;;;2.30;2.10;;;17.20;99.90;;;;;;5133297;27;20457;-65
2022/06/12 04:09:34;;;;;;;1.90;1.80;;;17.20;99.90;;;;;;5145525;27;20550;-66
2022/06/12 04:12:09;;;;;;;2.10;2.00;;;17.30;99.90;;;;;;5130513;27;20457;-67
2022/06/12 04:14:46;;;;;;;2.30;2.10;;;17.20;99.90;;;;;;5141168;27;20519;-66
2022/06/12 04:17:18;;;;;;;1.83;1.73;;;17.20;99.90;;;;;;5139985;27;20454;-66
2022/06/12 04:23:10;;;;;;;3.20;2.93;;;17.20;99.90;;;;;;5084631;28;20485;-66
2022/06/12 04:25:46;;;;;;;2.70;2.50;;;17.20;99.90;;;;;;5083337;28;20447;-66
2022/06/12 04:28:36;;;;;;;3.10;2.50;;;17.30;99.90;;;;;;5084635;28;20454;-66
2022/06/12 04:31:20;;;;;;;2.37;2.23;;;17.30;99.90;;;;;;5068577;28;20466;-67
2022/06/12 04:34:16;;;;;;;2.17;2.07;;;17.20;99.90;;;;;;5080613;28;20438;-66
2022/06/12 04:37:20;;;;;;;2.50;2.30;;;17.10;99.90;;;;;;5068411;28;21207;-66
2022/06/12 04:39:52;;;;;;;1.87;1.77;;;17.10;99.90;;;;;;5083515;28;20489;-66
2022/06/12 04:42:26;;;;;;;1.90;1.80;;;17.00;99.90;;;;;;5083454;28;20525;-67
2022/06/12 04:44:59;;;;;;;2.50;2.10;;;17.00;99.90;;;;;;5077826;28;20459;-66
2022/06/12 04:47:32;;;;;;;2.50;2.30;;;17.00;99.90;;;;;;5084219;28;20438;-66
2022/06/12 04:50:02;;;;;;;1.93;1.73;;;17.00;99.90;;;;;;5084023;28;20460;-65
2022/06/12 04:52:33;;;;;;;2.03;1.93;;;16.90;99.90;;;;;;5083526;28;20473;-65
2022/06/12 04:55:04;;;;;;;2.40;1.73;;;16.90;99.90;;;;;;5083002;28;20467;-65
2022/06/12 04:57:36;;;;;;;1.97;1.77;;;16.90;99.90;;;;;;5083263;28;20460;-66
2022/06/12 05:00:09;;;;;;;1.80;1.70;;;16.80;99.90;;;;;;5084945;28;20459;-67
2022/06/12 05:02:39;;;;;;;3.47;2.10;;;16.80;99.90;;;;;;5082121;28;20835;-66
2022/06/12 05:05:11;;;;;;;1.80;1.63;;;16.80;99.90;;;;;;5080989;28;20957;-65
2022/06/12 05:07:42;;;;;;;2.07;1.87;;;16.80;99.90;;;;;;5082422;28;20458;-66
2022/06/12 05:10:16;;;;;;;2.77;2.27;;;16.90;99.90;;;;;;5077897;28;20453;-66
2022/06/12 05:12:49;;;;;;;2.40;1.97;;;16.80;99.90;;;;;;5082927;28;20450;-67
2022/06/12 05:15:20;;;;;;;1.70;1.60;;;16.80;99.90;;;;;;5074064;28;20508;-66
2022/06/12 05:17:51;;;;;;;1.80;1.37;;;16.80;99.90;;;;;;5083326;28;20458;-66
2022/06/12 05:20:24;;;;;;;1.90;1.70;;;16.80;99.90;;;;;;5082626;28;20486;-66
2022/06/12 05:22:56;;;;;;;1.60;1.50;;;16.70;99.90;;;;;;5083640;28;20842;-66
2022/06/12 05:25:27;;;;;;;1.40;1.30;;;16.70;99.90;;;;;;5082563;28;20459;-66
2022/06/12 05:28:00;;;;;;;1.30;1.20;;;16.70;99.90;;;;;;5083634;28;20455;-67
2022/06/12 05:30:33;;;;;;;1.33;1.23;;;16.70;99.90;;;;;;5081395;28;20434;-66
2022/06/12 05:33:05;;;;;;;1.60;1.30;;;16.60;99.90;;;;;;5083894;28;20493;-66
2022/06/12 05:35:38;;;;;;;1.37;1.27;;;16.60;99.90;;;;;;5077957;28;20475;-66
2022/06/12 05:38:11;;;;;;;1.40;1.30;;;16.60;99.90;;;;;;5083481;28;20473;-66
2022/06/12 05:40:43;;;;;;;1.03;0.93;;;16.50;99.90;;;;;;5082340;28;20904;-66
2022/06/12 05:43:15;;;;;;;1.40;1.20;;;16.40;99.90;;;;;;5083482;28;20443;-67
2022/06/12 05:45:46;;;;;;;1.27;1.20;;;16.40;99.90;;;;;;5083347;28;20451;-67
2022/06/12 05:48:21;;;;;;;0.93;0.90;;;16.30;99.90;;;;;;5082777;28;20467;-67
2022/06/12 05:50:55;;;;;;;2.90;1.17;;;16.20;99.90;;;;;;5080098;28;20464;-67
2022/06/12 05:53:28;;;;;;;1.17;0.87;;;16.10;99.90;;;;;;5077518;28;20783;-67
2022/06/12 05:56:00;;;;;;;1.47;1.37;;;16.00;99.90;;;;;;5081387;28;20426;-67
2022/06/12 05:58:34;;;;;;;1.43;1.20;;;15.90;99.90;;;;;;5080889;28;20526;-66
2022/06/12 06:01:06;;;;;;;2.60;1.33;;;15.80;99.90;;;;;;5081885;28;20466;-68
2022/06/12 06:03:38;;;;;;;1.90;1.10;;;15.70;99.90;;;;;;5083616;28;20477;-68
2022/06/12 06:06:10;;;;;;;1.13;1.03;;;15.70;99.90;;;;;;5082348;28;20498;-68
2022/06/12 06:08:41;;;;;;;2.30;1.63;;;15.70;99.90;;;;;;5076589;28;20459;-68
2022/06/12 06:11:12;;;;;;;1.23;0.97;;;15.70;99.90;;;;;;5081063;28;20490;-68
2022/06/12 06:13:45;;;;;;;1.03;1.00;;;15.50;99.90;;;;;;5083294;28;20459;-69
2022/06/12 06:16:16;;;;;;;4.83;1.07;;;15.40;99.90;;;;;;5083074;28;20443;-68
2022/06/12 06:18:47;;;;;;;1.03;0.93;;;15.40;99.90;;;;;;5082283;28;20514;-68
2022/06/12 06:21:18;;;;;;;1.10;1.00;;;15.40;99.90;;;;;;5081635;28;20459;-68
2022/06/12 06:23:50;;;;;;;2.80;1.50;;;15.40;99.90;;;;;;5081763;28;20485;-68
2022/06/12 06:26:21;;;;;;;1.10;1.00;;;15.40;99.90;;;;;;5071731;28;20463;-68
2022/06/12 06:28:56;;;;;;;1.20;1.00;;;15.30;99.90;;;;;;5082846;28;20458;-69
2022/06/12 06:31:28;;;;;;;1.83;1.50;;;15.10;99.90;;;;;;5081679;28;20458;-68
2022/06/12 06:33:59;;;;;;;1.10;1.07;;;15.20;99.90;;;;;;5081581;28;20463;-68
2022/06/12 06:36:30;;;;;;;1.17;1.07;;;15.10;99.90;;;;;;5082782;28;20572;-68
2022/06/12 06:39:01;;;;;;;0.90;0.90;;;15.10;99.90;;;;;;5080997;28;20497;-67
2022/06/12 06:41:35;;;;;;;1.53;0.73;;;15.00;99.90;;;;;;5081632;28;20468;-68
2022/06/12 06:46:55;;;;;;;1.37;0.70;;;14.90;99.90;;;;;;5082791;28;20458;-68
2022/06/12 06:49:26;;;;;;;1.50;1.13;;;14.80;99.90;;;;;;5081647;28;20441;-67
2022/06/12 06:51:57;;;;;;;0.80;0.80;;;14.70;99.90;;;;;;5076338;28;20927;-68
2022/06/12 06:54:28;;;;;;;1.20;0.90;;;14.60;99.90;;;;;;5081456;28;20541;-68
2022/06/12 06:57:06;;;;;;;1.00;0.90;;;14.60;99.90;;;;;;5081878;28;20463;-67
2022/06/12 06:59:39;;;;;;;0.93;0.93;;;14.60;99.90;;;;;;5078552;28;20554;-68
2022/06/12 07:02:10;;;;;;;1.70;0.93;;;14.50;99.90;;;;;;5079417;28;20455;-68
2022/06/12 07:04:41;;;;;;;0.83;0.70;;;14.50;99.90;;;;;;5082208;28;20498;-68
2022/06/12 07:07:12;;;;;;;1.00;0.90;;;14.40;99.90;;;;;;5081243;28;20555;-68
2022/06/12 07:09:43;;;;;;;0.87;0.83;;;14.40;99.90;;;;;;5073842;28;20479;-68
2022/06/12 07:12:14;;;;;;;2.10;1.00;;;14.40;99.90;;;;;;5081626;28;20459;-68
2022/06/12 07:14:46;;;;;;;1.13;1.03;;;14.30;99.90;;;;;;5081714;28;20523;-68
2022/06/12 07:17:17;;;;;;;4.03;1.67;;;14.30;99.90;;;;;;5081634;28;20456;-69
2022/06/12 07:19:48;;;;;;;0.90;0.80;;;14.40;99.90;;;;;;5081079;28;20514;-68
2022/06/12 07:22:19;;;;;;;1.70;1.20;;;14.40;99.90;;;;;;5081304;28;20471;-68
2022/06/12 07:24:50;;;;;;;1.00;1.00;;;14.40;99.90;;;;;;5081498;28;20462;-68
2022/06/12 07:27:21;;;;;;;2.87;2.67;;;14.30;99.90;;;;;;5087974;28;20462;-68
2022/06/12 07:29:53;;;;;;;1.30;1.20;;;14.30;99.90;;;;;;5081240;28;20460;-68
2022/06/12 07:32:24;;;;;;;1.23;1.10;;;14.30;99.90;;;;;;5085848;28;20539;-68
2022/06/12 07:34:55;;;;;;;1.60;1.50;;;14.20;99.90;;;;;;5085776;28;20459;-68
2022/06/12 07:37:26;;;;;;;1.20;0.80;;;14.20;99.90;;;;;;5085910;28;20463;-67
2022/06/12 07:39:57;;;;;;;1.13;1.00;;;14.10;99.90;;;;;;5084280;28;20491;-68
2022/06/12 07:42:32;;;;;;;1.80;1.00;;;14.10;99.90;;;;;;5085165;28;20486;-68
2022/06/12 07:45:05;;;;;;;1.57;1.47;;;14.10;99.90;;;;;;5084844;28;20452;-68
2022/06/12 07:47:36;;;;;;;1.20;1.10;;;14.10;99.90;;;;;;5085813;28;20465;-68
2022/06/12 07:50:08;;;;;;;2.43;1.50;;;14.10;99.90;;;;;;5076049;28;20892;-67
2022/06/12 07:52:40;;;;;;;1.40;1.30;;;14.10;99.90;;;;;;5084888;28;20459;-68
2022/06/12 07:55:14;;;;;;;1.70;1.27;;;14.00;99.90;;;;;;5084163;28;20467;-68
2022/06/12 07:57:46;;;;;;;3.43;1.30;;;14.00;99.90;;;;;;5085312;28;20470;-68
2022/06/12 08:00:20;;;;;;;1.10;1.00;;;13.90;99.90;;;;;;5083716;28;20498;-69
2022/06/12 08:02:51;;;;;;;2.03;1.73;;;13.80;99.90;;;;;;5084973;28;20795;-68
2022/06/12 08:05:23;;;;;;;1.27;1.17;;;13.80;99.90;;;;;;5085435;28;20489;-68
2022/06/12 08:07:54;;;;;;;2.77;1.40;;;13.80;99.90;;;;;;5084545;28;21161;-68
2022/06/12 08:10:25;;;;;;;1.43;1.30;;;13.70;99.90;;;;;;5083459;28;20463;-68
2022/06/12 08:12:56;;;;;;;2.20;1.50;;;13.60;99.90;;;;;;5084254;28;20463;-68
2022/06/12 08:15:30;;;;;;;1.40;1.30;;;13.60;99.90;;;;;;5083465;28;20465;-68
2022/06/12 08:18:01;;;;;;;1.83;1.17;;;13.60;99.90;;;;;;5084703;28;20452;-68
2022/06/12 08:20:33;;;;;;;1.43;1.33;;;13.60;99.90;;;;;;5083254;28;20495;-68
2022/06/12 08:23:06;;;;;;;3.20;1.30;;;13.70;99.90;;;;;;5084217;28;20470;-67
2022/06/12 08:25:38;;;;;;;4.30;1.40;;;13.60;99.90;;;;;;5083829;28;20478;-68
2022/06/12 08:28:09;;;;;;;1.93;1.70;;;13.60;99.90;;;;;;5084081;28;20474;-67
2022/06/12 08:30:42;;;;;;;1.80;1.37;;;13.50;99.90;;;;;;5081087;28;20491;-68
2022/06/12 08:33:13;;;;;;;2.80;1.83;;;13.40;99.90;;;;;;5083553;28;20488;-68
2022/06/12 08:35:44;;;;;;;3.23;1.20;;;13.40;99.90;;;;;;5084451;28;20458;-68
2022/06/12 08:38:15;;;;;;;2.57;1.40;;;13.40;99.90;;;;;;5084192;28;20463;-68
2022/06/12 08:40:52;;;;;;;1.73;1.57;;;13.50;99.90;;;;;;5082430;28;20498;-68
2022/06/12 08:43:31;;;;;;;2.97;1.57;;;13.50;99.90;;;;;;5082386;28;20462;-68
2022/06/12 08:46:09;;;;;;;2.70;1.30;;;13.50;99.90;;;;;;5083475;28;20563;-69
2022/06/12 08:48:48;;;;;;;1.50;1.40;;;13.40;99.90;;;;;;5085531;28;20455;-68
2022/06/12 08:51:25;;;;;;;1.90;1.60;;;13.40;99.90;;;;;;5083182;28;20459;-68
2022/06/12 08:54:03;;;;;;;5.30;1.97;;;13.40;99.90;;;;;;5082102;28;21120;-68
2022/06/12 08:56:39;;;;;;;1.50;1.40;;;13.40;99.90;;;;;;5084372;28;20470;-67
2022/06/12 08:59:15;;;;;;;2.23;1.40;;;13.50;99.90;;;;;;5083182;28;20455;-68
2022/06/12 09:01:48;;;;;;;1.63;1.53;;;13.30;99.90;;;;;;5085734;28;20494;-68
2022/06/12 09:04:23;;;;;;;1.60;1.37;;;13.30;99.90;;;;;;5083667;28;20462;-68
2022/06/12 09:07:02;;;;;;;1.70;1.40;;;13.10;99.90;;;;;;5072206;28;20459;-68
2022/06/12 09:09:42;;;;;;;1.57;1.47;;;13.00;99.90;;;;;;5083281;28;20553;-68
2022/06/12 09:12:20;;;;;;;1.97;1.57;;;13.00;99.90;;;;;;5083717;28;20467;-68
2022/06/12 09:15:10;;;;;;;1.43;1.33;;;13.00;99.90;;;;;;5083712;28;20463;-68
2022/06/12 09:17:53;;;;;;;1.10;1.00;;;13.00;99.90;;;;;;5077454;28;20471;-68
2022/06/12 09:20:32;;;;;;;1.80;1.40;;;12.90;99.90;;;;;;5081926;28;20506;-68
2022/06/12 09:23:15;;;;;;;1.30;1.20;;;12.90;99.90;;;;;;5084308;28;20465;-68
2022/06/12 09:25:53;;;;;;;1.30;1.23;;;12.90;99.90;;;;;;5082897;28;20458;-68
2022/06/12 09:28:33;;;;;;;2.20;1.60;;;12.90;99.90;;;;;;5084121;28;20461;-68
2022/06/12 09:31:10;;;;;;;1.43;1.33;;;13.00;99.90;;;;;;5084341;28;20763;-68
2022/06/12 09:33:50;;;;;;;2.20;1.53;;;13.00;99.90;;;;;;5083446;28;20498;-68
2022/06/12 09:36:34;;;;;;;1.43;1.33;;;13.00;99.90;;;;;;5083088;28;20470;-68
2022/06/12 09:39:09;;;;;;;2.47;1.23;;;13.00;99.90;;;;;;5082077;28;21243;-68
2022/06/12 09:41:49;;;;;;;1.93;1.63;;;12.90;99.90;;;;;;5081899;28;20566;-68
2022/06/12 09:44:27;;;;;;;1.53;1.43;;;12.90;99.90;;;;;;5082720;28;21532;-68
2022/06/12 09:47:09;;;;;;;2.93;1.37;;;12.90;99.90;;;;;;5071968;28;20457;-68
2022/06/12 09:50:08;;;;;;;1.50;1.40;;;12.90;99.90;;;;;;5079457;28;20467;-69
2022/06/12 09:53:07;;;;;;;1.93;1.80;;;12.80;99.90;;;;;;5067944;28;20455;-67
2022/06/12 09:55:42;;;;;;;1.83;1.67;;;12.80;99.90;;;;;;5082130;28;20455;-68
2022/06/12 09:58:17;;;;;;;2.10;1.90;;;12.70;99.90;;;;;;5082224;28;20462;-68
2022/06/12 10:00:52;;;;;;;3.70;1.83;;;12.70;99.90;;;;;;5081215;28;20494;-68
2022/06/12 10:03:30;;;;;;;1.97;1.83;;;12.70;99.90;;;;;;5082451;28;20507;-68
2022/06/12 10:06:09;;;;;;;1.70;1.33;;;12.60;99.90;;;;;;5082802;28;20467;-68
2022/06/12 10:08:49;;;;;;;1.47;1.27;;;12.60;99.90;;;;;;5082448;28;20459;-68
2022/06/12 10:11:24;;;;;;;2.40;1.90;;;12.70;99.90;;;;;;5083061;28;20463;-68
2022/06/12 10:14:01;;;;;;;1.40;1.30;;;12.70;99.90;;;;;;5082592;28;20566;-67
2022/06/12 10:16:38;;;;;;;2.10;1.90;;;12.70;99.90;;;;;;5080423;28;20459;-67
2022/06/12 10:19:33;;;;;;;1.57;1.47;;;12.80;99.90;;;;;;5082115;28;20487;-68
2022/06/12 10:22:11;;;;;;;4.53;1.87;;;12.90;99.90;;;;;;5082054;28;20574;-68
2022/06/12 10:24:42;;;;;;;2.97;1.90;;;12.80;99.90;;;;;;5080381;28;20467;-68
2022/06/12 10:27:16;;;;;;;3.40;1.50;;;12.80;99.90;;;;;;5082315;28;20497;-68
2022/06/12 10:29:50;;;;;;;1.57;1.47;;;12.80;99.90;;;;;;5081685;28;20466;-68
2022/06/12 10:32:23;;;;;;;1.40;1.27;;;12.80;99.90;;;;;;5082174;28;20440;-68
2022/06/12 10:34:56;;;;;;;1.90;1.70;;;12.80;99.90;;;;;;5080767;28;20626;-68
2022/06/12 10:37:30;;;;;;;1.77;1.60;;;12.90;99.90;;;;;;5082047;28;20467;-68
2022/06/12 10:40:05;;;;;;;2.20;2.00;;;12.90;99.90;;;;;;5080127;28;20572;-67
2022/06/12 10:42:46;;;;;;;1.80;1.43;;;12.90;99.90;;;;;;5082205;28;20470;-67
2022/06/12 10:45:24;;;;;;;2.27;1.80;;;12.90;99.90;;;;;;5080822;28;20471;-67
2022/06/12 10:47:57;;;;;;;1.50;1.40;;;12.90;99.90;;;;;;5081987;28;20468;-68
2022/06/12 10:50:30;;;;;;;2.20;1.53;;;12.80;99.90;;;;;;5081981;28;20462;-68
2022/06/12 10:53:07;;;;;;;1.73;1.37;;;12.70;99.90;;;;;;5081561;28;20471;-67
2022/06/12 10:55:52;;;;;;;1.33;1.23;;;12.80;99.90;;;;;;5080261;28;20474;-67
2022/06/12 10:59:04;;;;;;;1.57;1.47;;;12.80;99.90;;;;;;5081817;28;20463;-67
2022/06/12 11:01:42;;;;;;;1.60;1.47;;;12.80;99.90;;;;;;5054931;28;20966;-67
2022/06/12 11:04:26;;;;;;;1.47;1.37;;;12.80;99.90;;;;;;5082134;28;20828;-67
2022/06/12 11:07:12;;;;;;;2.43;1.50;;;12.80;99.90;;;;;;5077911;28;20457;-67
2022/06/12 11:10:00;;;;;;;1.60;1.20;;;12.90;99.90;;;;;;5078232;28;20546;-67
2022/06/12 11:12:54;;;;;;;3.07;1.50;;;12.90;99.90;;;;;;5081836;28;20535;-67
2022/06/12 11:15:37;;;;;;;1.60;1.50;;;12.90;99.90;;;;;;5080469;28;20510;-68
2022/06/12 11:18:19;;;;;;;2.10;1.87;;;12.80;99.90;;;;;;5081669;28;20459;-69
2022/06/12 11:20:59;;;;;;;2.03;1.30;;;12.80;99.90;;;;;;5080160;28;20702;-67
2022/06/12 11:23:48;;;;;;;2.00;1.30;;;12.90;99.90;;;;;;5081855;28;20478;-67
2022/06/12 11:26:39;;;;;;;1.33;1.23;;;12.80;99.90;;;;;;5081336;28;20464;-67
2022/06/12 11:29:28;;;;;;;3.67;1.67;;;12.80;99.90;;;;;;5080089;28;20543;-67
2022/06/12 11:32:12;;;;;;;1.37;1.27;;;12.80;99.90;;;;;;5080330;28;21029;-67
2022/06/12 11:34:57;;;;;;;1.77;1.43;;;12.80;99.90;;;;;;5081485;28;20463;-67
2022/06/12 11:37:46;;;;;;;3.10;1.23;;;12.80;99.90;;;;;;5081768;28;20495;-67
2022/06/12 11:40:25;;;;;;;1.50;1.40;;;12.80;99.90;;;;;;5079574;28;20550;-67
2022/06/12 11:43:08;;;;;;;0.90;0.90;;;12.70;99.90;;;;;;5080572;28;20498;-67
2022/06/12 11:45:59;;;;;;;1.47;1.37;;;12.80;99.90;;;;;;5080953;28;20458;-68
2022/06/12 11:48:45;;;;;;;1.90;1.30;;;12.80;99.90;;;;;;5082107;28;20516;-68
2022/06/12 11:51:29;;;;;;;1.13;1.03;;;12.80;99.90;;;;;;5080626;28;20455;-67
2022/06/12 11:54:15;;;;;;;5.23;1.40;;;12.70;99.90;;;;;;5080422;28;20478;-68
2022/06/12 11:57:02;;;;;;;2.10;1.60;;;12.70;99.90;;;;;;5081337;28;20456;-67
2022/06/12 11:59:48;;;;;;;1.40;1.30;;;12.60;99.90;;;;;;5078733;28;20521;-68
2022/06/12 12:02:32;;;;;;;1.30;1.20;;;12.70;99.90;;;;;;5080828;28;20640;-68
2022/06/12 12:05:28;;;;;;;1.30;1.07;;;12.60;99.90;;;;;;5078028;28;20455;-68
2022/06/12 12:08:08;;;;;;;1.53;1.43;;;12.60;99.90;;;;;;5081400;28;20463;-68
2022/06/12 12:10:51;;;;;;;1.80;1.67;;;12.60;99.90;;;;;;5079432;28;20487;-67
2022/06/12 12:13:26;;;;;;;3.50;1.40;;;12.60;99.90;;;;;;5080766;28;20455;-68
2022/06/12 12:16:03;;;;;;;1.70;1.60;;;12.60;99.90;;;;;;5081097;28;20550;-67
2022/06/12 12:18:39;;;;;;;1.97;1.67;;;12.60;99.90;;;;;;5085249;28;20644;-68
2022/06/12 12:21:23;;;;;;;1.50;1.40;;;12.60;99.90;;;;;;5083917;28;20980;-67
2022/06/12 12:23:56;;;;;;;1.90;1.40;;;12.60;99.90;;;;;;5083663;28;20451;-68
2022/06/12 12:26:31;;;;;;;1.90;1.10;;;12.50;99.90;;;;;;5083617;28;20953;-67
2022/06/12 12:29:05;;;;;;;1.43;1.33;;;12.60;99.90;;;;;;5082660;28;21163;-67
2022/06/12 12:31:39;;;;;;;1.90;1.70;;;12.50;99.90;;;;;;5084363;28;20477;-68
2022/06/12 12:34:12;;;;;;;2.00;1.50;;;12.60;99.90;;;;;;5084640;28;20466;-67
2022/06/12 12:42:32;;;;;;;2.07;1.90;;;12.60;99.90;;;;;;5082113;28;20491;-67
2022/06/12 12:45:31;;;;;;;2.23;2.07;;;12.60;99.90;;;;;;5077675;28;20567;-68
2022/06/12 12:48:17;;;;;;;2.00;1.73;;;12.60;99.90;;;;;;5081711;28;20467;-67
2022/06/12 12:50:52;;;;;;;2.67;1.50;;;12.50;99.90;;;;;;5083460;28;20470;-67
2022/06/12 12:53:26;;;;;;;2.13;1.60;;;12.50;99.90;;;;;;5083881;28;20478;-68
2022/06/12 12:56:01;;;;;;;2.20;1.67;;;12.60;99.90;;;;;;5082895;28;20526;-67
2022/06/12 12:58:34;;;;;;;1.60;1.50;;;12.60;99.90;;;;;;5083914;28;20467;-68
2022/06/12 13:01:08;;;;;;;1.70;1.60;;;12.60;99.90;;;;;;5082806;28;20473;-68
2022/06/12 13:03:47;;;;;;;1.80;1.53;;;12.60;99.90;;;;;;5083369;28;20463;-67
2022/06/12 13:06:29;;;;;;;1.97;1.27;;;12.60;99.90;;;;;;5083742;28;20463;-68
2022/06/12 13:09:19;;;;;;;1.90;1.70;;;12.60;99.90;;;;;;5082909;28;20467;-67
2022/06/12 13:12:05;;;;;;;1.63;1.53;;;12.60;99.90;;;;;;5084150;28;20467;-67
2022/06/12 13:14:49;;;;;;;2.20;2.00;;;12.60;99.90;;;;;;5083645;28;20478;-67
2022/06/12 13:17:41;;;;;;;2.40;1.80;;;12.60;99.90;;;;;;5082853;28;20452;-66
2022/06/12 13:20:38;;;;;;;1.33;1.23;;;12.60;99.90;;;;;;5086492;28;20605;-66
2022/06/12 13:23:30;;;;;;;2.10;1.73;;;12.60;99.90;;;;;;5083443;28;20962;-67
2022/06/12 13:26:12;;;;;;;1.70;1.60;;;12.60;99.90;;;;;;5081161;28;20540;-66
2022/06/12 13:28:43;;;;;;;2.23;1.33;;;12.60;99.90;;;;;;5083508;28;20459;-67
2022/06/12 13:31:21;;;;;;;2.37;1.77;;;12.60;99.90;;;;;;5082770;28;20475;-66
2022/06/12 13:33:57;;;;;;;1.50;1.40;;;12.70;99.90;;;;;;5082924;28;20467;-66
2022/06/12 13:36:34;;;;;;;1.93;1.73;;;12.80;99.90;;;;;;5082890;28;20554;-66
2022/06/12 13:39:08;;;;;;;3.63;2.00;;;12.80;99.90;;;;;;5081788;28;20473;-66
2022/06/12 13:41:42;;;;;;;5.80;1.70;;;12.90;99.90;;;;;;5081099;28;20455;-67
2022/06/12 13:44:28;;;;;;;1.47;1.37;;;13.00;99.90;;;;;;5082942;28;20462;-67
2022/06/12 13:47:16;;;;;;;4.13;1.90;;;13.00;99.90;;;;;;5083649;28;20806;-66
2022/06/12 13:49:50;;;;;;;2.00;1.80;;;12.90;99.90;;;;;;5078918;28;20467;-66
2022/06/12 13:52:33;;;;;;;2.80;2.00;;;13.00;99.90;;;;;;5082472;28;20459;-66
2022/06/12 13:55:04;;;;;;;1.80;1.27;;;12.90;99.90;;;;;;5080206;28;20522;-66
2022/06/12 13:57:38;;;;;;;2.13;1.50;;;12.80;99.90;;;;;;5081537;28;20460;-66
2022/06/12 14:00:30;;;;;;;1.77;1.57;;;12.90;99.90;;;;;;5082968;28;20550;-66